sensor_id;sensor_type;location;lat;lon;timestamp;P1;durP1;ratioP1;P2;durP2;ratioP2
71395;SDS011;59888;55.814;37.132;2022-07-25T00:01:04;14.32;;;5.97;;
71395;SDS011;59888;55.814;37.132;2022-07-25T00:03:30;8.73;;;5.95;;
71395;SDS011;59888;55.814;37.132;2022-07-25T00:05:56;9.63;;;6.32;;
71395;SDS011;59888;55.814;37.132;2022-07-25T00:08:23;11.77;;;6.10;;
71395;SDS011;59888;55.814;37.132;2022-07-25T00:10:49;9.10;;;5.63;;
71395;SDS011;59888;55.814;37.132;2022-07-25T00:13:14;7.60;;;6.00;;
71395;SDS011;59888;55.814;37.132;2022-07-25T00:15:40;10.20;;;6.45;;
71395;SDS011;59888;55.814;37.132;2022-07-25T00:18:06;9.90;;;6.22;;
71395;SDS011;59888;55.814;37.132;2022-07-25T00:20:32;14.68;;;7.25;;
71395;SDS011;59888;55.814;37.132;2022-07-25T00:22:58;10.20;;;6.18;;
71395;SDS011;59888;55.814;37.132;2022-07-25T00:25:23;12.50;;;6.60;;
71395;SDS011;59888;55.814;37.132;2022-07-25T00:27:50;11.05;;;6.18;;
71395;SDS011;59888;55.814;37.132;2022-07-25T00:30:16;11.45;;;6.63;;
71395;SDS011;59888;55.814;37.132;2022-07-25T00:32:42;13.15;;;7.38;;
71395;SDS011;59888;55.814;37.132;2022-07-25T00:35:08;12.88;;;7.40;;
71395;SDS011;59888;55.814;37.132;2022-07-25T00:37:34;7.68;;;6.35;;
71395;SDS011;59888;55.814;37.132;2022-07-25T00:40:00;12.57;;;7.00;;
71395;SDS011;59888;55.814;37.132;2022-07-25T00:42:26;10.40;;;7.18;;
71395;SDS011;59888;55.814;37.132;2022-07-25T00:44:51;11.38;;;7.03;;
71395;SDS011;59888;55.814;37.132;2022-07-25T00:47:18;16.10;;;7.05;;
71395;SDS011;59888;55.814;37.132;2022-07-25T00:49:43;11.90;;;6.30;;
71395;SDS011;59888;55.814;37.132;2022-07-25T00:52:09;13.02;;;7.05;;
71395;SDS011;59888;55.814;37.132;2022-07-25T00:54:35;11.23;;;6.70;;
71395;SDS011;59888;55.814;37.132;2022-07-25T00:57:01;9.95;;;6.75;;
71395;SDS011;59888;55.814;37.132;2022-07-25T00:59:27;10.02;;;6.18;;
71395;SDS011;59888;55.814;37.132;2022-07-25T01:01:53;11.95;;;6.90;;
71395;SDS011;59888;55.814;37.132;2022-07-25T01:04:19;13.20;;;7.22;;
71395;SDS011;59888;55.814;37.132;2022-07-25T01:06:45;9.40;;;6.75;;
71395;SDS011;59888;55.814;37.132;2022-07-25T01:09:11;11.48;;;6.68;;
71395;SDS011;59888;55.814;37.132;2022-07-25T01:11:37;13.85;;;7.30;;
71395;SDS011;59888;55.814;37.132;2022-07-25T01:14:03;10.90;;;6.30;;
71395;SDS011;59888;55.814;37.132;2022-07-25T01:16:29;12.15;;;6.97;;
71395;SDS011;59888;55.814;37.132;2022-07-25T01:18:55;13.88;;;6.78;;
71395;SDS011;59888;55.814;37.132;2022-07-25T01:21:22;13.45;;;7.10;;
71395;SDS011;59888;55.814;37.132;2022-07-25T01:23:48;10.60;;;6.57;;
71395;SDS011;59888;55.814;37.132;2022-07-25T01:26:15;10.48;;;6.35;;
71395;SDS011;59888;55.814;37.132;2022-07-25T01:28:40;12.45;;;7.13;;
71395;SDS011;59888;55.814;37.132;2022-07-25T01:31:06;14.63;;;6.97;;
71395;SDS011;59888;55.814;37.132;2022-07-25T01:33:32;13.15;;;6.80;;
71395;SDS011;59888;55.814;37.132;2022-07-25T01:35:58;15.25;;;6.97;;
71395;SDS011;59888;55.814;37.132;2022-07-25T01:38:24;11.65;;;6.25;;
71395;SDS011;59888;55.814;37.132;2022-07-25T01:40:50;10.10;;;7.07;;
71395;SDS011;59888;55.814;37.132;2022-07-25T01:43:16;13.07;;;6.35;;
71395;SDS011;59888;55.814;37.132;2022-07-25T01:45:42;8.98;;;6.20;;
71395;SDS011;59888;55.814;37.132;2022-07-25T01:48:07;11.38;;;7.13;;
71395;SDS011;59888;55.814;37.132;2022-07-25T01:50:33;13.75;;;6.75;;
71395;SDS011;59888;55.814;37.132;2022-07-25T01:52:59;12.63;;;6.70;;
71395;SDS011;59888;55.814;37.132;2022-07-25T01:55:25;12.15;;;6.78;;
71395;SDS011;59888;55.814;37.132;2022-07-25T01:57:51;10.20;;;6.13;;
71395;SDS011;59888;55.814;37.132;2022-07-25T02:00:17;9.80;;;6.78;;
71395;SDS011;59888;55.814;37.132;2022-07-25T02:02:43;10.68;;;6.55;;
71395;SDS011;59888;55.814;37.132;2022-07-25T02:05:10;9.05;;;6.40;;
71395;SDS011;59888;55.814;37.132;2022-07-25T02:07:36;8.70;;;6.53;;
71395;SDS011;59888;55.814;37.132;2022-07-25T02:10:04;7.57;;;6.32;;
71395;SDS011;59888;55.814;37.132;2022-07-25T02:12:31;9.82;;;6.10;;
71395;SDS011;59888;55.814;37.132;2022-07-25T02:15:03;10.23;;;6.63;;
71395;SDS011;59888;55.814;37.132;2022-07-25T02:17:30;9.02;;;6.25;;
71395;SDS011;59888;55.814;37.132;2022-07-25T02:19:55;8.40;;;6.15;;
71395;SDS011;59888;55.814;37.132;2022-07-25T02:22:21;9.35;;;6.30;;
71395;SDS011;59888;55.814;37.132;2022-07-25T02:24:47;9.70;;;6.47;;
71395;SDS011;59888;55.814;37.132;2022-07-25T02:27:13;9.77;;;6.30;;
71395;SDS011;59888;55.814;37.132;2022-07-25T02:29:38;11.10;;;6.45;;
71395;SDS011;59888;55.814;37.132;2022-07-25T02:32:04;8.82;;;6.18;;
71395;SDS011;59888;55.814;37.132;2022-07-25T02:34:30;8.07;;;6.40;;
71395;SDS011;59888;55.814;37.132;2022-07-25T02:36:56;10.63;;;6.00;;
71395;SDS011;59888;55.814;37.132;2022-07-25T02:39:22;8.15;;;6.43;;
71395;SDS011;59888;55.814;37.132;2022-07-25T02:41:49;9.32;;;6.35;;
71395;SDS011;59888;55.814;37.132;2022-07-25T02:44:15;7.13;;;5.70;;
71395;SDS011;59888;55.814;37.132;2022-07-25T02:46:41;9.05;;;6.55;;
71395;SDS011;59888;55.814;37.132;2022-07-25T02:49:06;8.75;;;6.07;;
71395;SDS011;59888;55.814;37.132;2022-07-25T02:51:32;8.20;;;6.03;;
71395;SDS011;59888;55.814;37.132;2022-07-25T02:53:58;7.05;;;5.68;;
71395;SDS011;59888;55.814;37.132;2022-07-25T02:56:25;9.18;;;6.70;;
71395;SDS011;59888;55.814;37.132;2022-07-25T02:58:52;11.57;;;5.90;;
71395;SDS011;59888;55.814;37.132;2022-07-25T03:01:18;7.65;;;5.50;;
71395;SDS011;59888;55.814;37.132;2022-07-25T03:03:44;12.38;;;6.35;;
71395;SDS011;59888;55.814;37.132;2022-07-25T03:06:10;7.78;;;5.88;;
71395;SDS011;59888;55.814;37.132;2022-07-25T03:08:35;9.77;;;6.18;;
71395;SDS011;59888;55.814;37.132;2022-07-25T03:11:01;9.48;;;6.55;;
71395;SDS011;59888;55.814;37.132;2022-07-25T03:13:27;10.20;;;6.00;;
71395;SDS011;59888;55.814;37.132;2022-07-25T03:15:53;7.93;;;6.15;;
71395;SDS011;59888;55.814;37.132;2022-07-25T03:18:19;7.95;;;6.35;;
71395;SDS011;59888;55.814;37.132;2022-07-25T03:20:44;9.00;;;5.93;;
71395;SDS011;59888;55.814;37.132;2022-07-25T03:23:10;10.15;;;6.22;;
71395;SDS011;59888;55.814;37.132;2022-07-25T03:25:36;7.80;;;5.82;;
71395;SDS011;59888;55.814;37.132;2022-07-25T03:28:02;8.35;;;6.20;;
71395;SDS011;59888;55.814;37.132;2022-07-25T03:30:28;8.25;;;6.10;;
71395;SDS011;59888;55.814;37.132;2022-07-25T03:32:54;8.18;;;6.30;;
71395;SDS011;59888;55.814;37.132;2022-07-25T03:35:19;7.63;;;6.55;;
71395;SDS011;59888;55.814;37.132;2022-07-25T03:37:45;7.78;;;6.38;;
71395;SDS011;59888;55.814;37.132;2022-07-25T03:40:11;7.78;;;5.50;;
71395;SDS011;59888;55.814;37.132;2022-07-25T03:42:38;9.48;;;5.70;;
71395;SDS011;59888;55.814;37.132;2022-07-25T03:45:04;8.82;;;6.05;;
71395;SDS011;59888;55.814;37.132;2022-07-25T03:47:31;7.35;;;5.80;;
71395;SDS011;59888;55.814;37.132;2022-07-25T03:49:56;7.78;;;5.95;;
71395;SDS011;59888;55.814;37.132;2022-07-25T03:52:22;10.50;;;5.78;;
71395;SDS011;59888;55.814;37.132;2022-07-25T03:54:48;8.40;;;5.95;;
71395;SDS011;59888;55.814;37.132;2022-07-25T03:57:14;8.55;;;5.72;;
71395;SDS011;59888;55.814;37.132;2022-07-25T03:59:40;8.15;;;5.32;;
71395;SDS011;59888;55.814;37.132;2022-07-25T04:02:06;10.95;;;5.97;;
71395;SDS011;59888;55.814;37.132;2022-07-25T04:04:31;8.55;;;5.78;;
71395;SDS011;59888;55.814;37.132;2022-07-25T04:06:58;8.05;;;5.72;;
71395;SDS011;59888;55.814;37.132;2022-07-25T04:09:23;7.95;;;5.47;;
71395;SDS011;59888;55.814;37.132;2022-07-25T04:11:49;9.13;;;5.68;;
71395;SDS011;59888;55.814;37.132;2022-07-25T04:14:15;6.80;;;5.72;;
71395;SDS011;59888;55.814;37.132;2022-07-25T04:16:41;8.75;;;5.95;;
71395;SDS011;59888;55.814;37.132;2022-07-25T04:19:07;6.60;;;5.70;;
71395;SDS011;59888;55.814;37.132;2022-07-25T04:21:33;9.00;;;5.90;;
71395;SDS011;59888;55.814;37.132;2022-07-25T04:23:59;10.68;;;5.85;;
71395;SDS011;59888;55.814;37.132;2022-07-25T04:26:25;7.35;;;5.32;;
71395;SDS011;59888;55.814;37.132;2022-07-25T04:28:51;7.90;;;5.78;;
71395;SDS011;59888;55.814;37.132;2022-07-25T04:31:17;8.82;;;5.72;;
71395;SDS011;59888;55.814;37.132;2022-07-25T04:33:43;7.47;;;5.28;;
71395;SDS011;59888;55.814;37.132;2022-07-25T04:36:10;8.45;;;6.10;;
71395;SDS011;59888;55.814;37.132;2022-07-25T04:38:36;8.20;;;5.70;;
71395;SDS011;59888;55.814;37.132;2022-07-25T04:41:02;8.80;;;6.35;;
71395;SDS011;59888;55.814;37.132;2022-07-25T04:43:28;9.55;;;6.13;;
71395;SDS011;59888;55.814;37.132;2022-07-25T04:45:54;7.15;;;5.55;;
71395;SDS011;59888;55.814;37.132;2022-07-25T04:48:19;11.77;;;6.07;;
71395;SDS011;59888;55.814;37.132;2022-07-25T04:50:45;7.88;;;4.93;;
71395;SDS011;59888;55.814;37.132;2022-07-25T04:53:11;7.35;;;4.82;;
71395;SDS011;59888;55.814;37.132;2022-07-25T04:55:37;6.05;;;4.93;;
71395;SDS011;59888;55.814;37.132;2022-07-25T04:58:03;7.57;;;5.72;;
71395;SDS011;59888;55.814;37.132;2022-07-25T05:00:30;7.72;;;5.70;;
71395;SDS011;59888;55.814;37.132;2022-07-25T05:02:56;9.18;;;5.15;;
71395;SDS011;59888;55.814;37.132;2022-07-25T05:05:23;6.90;;;5.40;;
71395;SDS011;59888;55.814;37.132;2022-07-25T05:07:49;6.13;;;5.45;;
71395;SDS011;59888;55.814;37.132;2022-07-25T05:10:20;6.53;;;4.80;;
71395;SDS011;59888;55.814;37.132;2022-07-25T05:12:45;5.88;;;4.88;;
71395;SDS011;59888;55.814;37.132;2022-07-25T05:15:11;6.88;;;4.70;;
71395;SDS011;59888;55.814;37.132;2022-07-25T05:17:37;7.72;;;5.40;;
71395;SDS011;59888;55.814;37.132;2022-07-25T05:20:03;8.38;;;5.18;;
71395;SDS011;59888;55.814;37.132;2022-07-25T05:22:30;7.25;;;5.43;;
71395;SDS011;59888;55.814;37.132;2022-07-25T05:25:01;7.97;;;5.47;;
71395;SDS011;59888;55.814;37.132;2022-07-25T05:27:28;7.32;;;5.45;;
71395;SDS011;59888;55.814;37.132;2022-07-25T05:29:54;6.18;;;5.38;;
71395;SDS011;59888;55.814;37.132;2022-07-25T05:32:20;7.00;;;5.65;;
71395;SDS011;59888;55.814;37.132;2022-07-25T05:34:46;8.45;;;5.70;;
71395;SDS011;59888;55.814;37.132;2022-07-25T05:37:12;9.82;;;5.75;;
71395;SDS011;59888;55.814;37.132;2022-07-25T05:39:38;5.25;;;4.72;;
71395;SDS011;59888;55.814;37.132;2022-07-25T05:42:05;7.40;;;5.45;;
71395;SDS011;59888;55.814;37.132;2022-07-25T05:44:31;7.85;;;5.35;;
71395;SDS011;59888;55.814;37.132;2022-07-25T05:46:57;9.48;;;5.47;;
71395;SDS011;59888;55.814;37.132;2022-07-25T05:49:23;7.65;;;5.63;;
71395;SDS011;59888;55.814;37.132;2022-07-25T05:51:49;8.23;;;5.53;;
71395;SDS011;59888;55.814;37.132;2022-07-25T05:54:15;6.80;;;4.85;;
71395;SDS011;59888;55.814;37.132;2022-07-25T05:56:41;6.03;;;4.93;;
71395;SDS011;59888;55.814;37.132;2022-07-25T05:59:07;8.60;;;5.22;;
71395;SDS011;59888;55.814;37.132;2022-07-25T06:01:33;7.53;;;5.65;;
71395;SDS011;59888;55.814;37.132;2022-07-25T06:03:59;8.15;;;5.68;;
71395;SDS011;59888;55.814;37.132;2022-07-25T06:06:25;8.90;;;5.32;;
71395;SDS011;59888;55.814;37.132;2022-07-25T06:08:51;7.03;;;5.22;;
71395;SDS011;59888;55.814;37.132;2022-07-25T06:11:17;6.57;;;4.90;;
71395;SDS011;59888;55.814;37.132;2022-07-25T06:13:43;5.72;;;5.05;;
71395;SDS011;59888;55.814;37.132;2022-07-25T06:16:09;6.97;;;4.75;;
71395;SDS011;59888;55.814;37.132;2022-07-25T06:18:34;7.60;;;5.85;;
71395;SDS011;59888;55.814;37.132;2022-07-25T06:21:00;6.15;;;5.22;;
71395;SDS011;59888;55.814;37.132;2022-07-25T06:23:26;5.68;;;4.95;;
71395;SDS011;59888;55.814;37.132;2022-07-25T06:25:52;8.40;;;5.43;;
71395;SDS011;59888;55.814;37.132;2022-07-25T06:28:18;7.80;;;5.30;;
71395;SDS011;59888;55.814;37.132;2022-07-25T06:30:44;6.57;;;5.57;;
71395;SDS011;59888;55.814;37.132;2022-07-25T06:33:10;5.63;;;4.70;;
71395;SDS011;59888;55.814;37.132;2022-07-25T06:35:37;9.05;;;5.50;;
71395;SDS011;59888;55.814;37.132;2022-07-25T06:38:02;9.20;;;5.70;;
71395;SDS011;59888;55.814;37.132;2022-07-25T06:40:29;10.43;;;5.43;;
71395;SDS011;59888;55.814;37.132;2022-07-25T06:42:55;5.72;;;4.95;;
71395;SDS011;59888;55.814;37.132;2022-07-25T06:45:21;7.68;;;5.07;;
71395;SDS011;59888;55.814;37.132;2022-07-25T06:47:47;7.63;;;5.32;;
71395;SDS011;59888;55.814;37.132;2022-07-25T06:50:14;8.88;;;4.78;;
71395;SDS011;59888;55.814;37.132;2022-07-25T06:52:45;6.75;;;6.05;;
71395;SDS011;59888;55.814;37.132;2022-07-25T06:55:12;8.82;;;5.15;;
71395;SDS011;59888;55.814;37.132;2022-07-25T06:57:39;5.72;;;4.22;;
71395;SDS011;59888;55.814;37.132;2022-07-25T07:00:07;7.63;;;4.93;;
71395;SDS011;59888;55.814;37.132;2022-07-25T07:02:59;6.07;;;4.75;;
71395;SDS011;59888;55.814;37.132;2022-07-25T07:05:28;6.90;;;4.57;;
71395;SDS011;59888;55.814;37.132;2022-07-25T07:07:55;6.78;;;5.07;;
71395;SDS011;59888;55.814;37.132;2022-07-25T07:10:21;6.88;;;5.07;;
71395;SDS011;59888;55.814;37.132;2022-07-25T07:12:48;6.03;;;4.85;;
71395;SDS011;59888;55.814;37.132;2022-07-25T07:15:14;6.90;;;4.85;;
71395;SDS011;59888;55.814;37.132;2022-07-25T07:17:41;6.35;;;5.10;;
71395;SDS011;59888;55.814;37.132;2022-07-25T07:20:07;9.02;;;6.10;;
71395;SDS011;59888;55.814;37.132;2022-07-25T07:22:44;10.93;;;5.25;;
71395;SDS011;59888;55.814;37.132;2022-07-25T07:25:12;6.32;;;5.18;;
71395;SDS011;59888;55.814;37.132;2022-07-25T07:27:38;6.85;;;4.80;;
71395;SDS011;59888;55.814;37.132;2022-07-25T07:30:04;5.97;;;5.22;;
71395;SDS011;59888;55.814;37.132;2022-07-25T07:32:30;8.20;;;5.10;;
71395;SDS011;59888;55.814;37.132;2022-07-25T07:34:56;6.13;;;4.63;;
71395;SDS011;59888;55.814;37.132;2022-07-25T07:37:22;6.22;;;4.43;;
71395;SDS011;59888;55.814;37.132;2022-07-25T07:39:48;6.22;;;4.72;;
71395;SDS011;59888;55.814;37.132;2022-07-25T07:42:14;5.88;;;4.70;;
71395;SDS011;59888;55.814;37.132;2022-07-25T07:44:40;6.18;;;4.88;;
71395;SDS011;59888;55.814;37.132;2022-07-25T07:47:06;6.28;;;4.75;;
71395;SDS011;59888;55.814;37.132;2022-07-25T07:49:31;9.32;;;5.15;;
71395;SDS011;59888;55.814;37.132;2022-07-25T07:51:57;6.57;;;4.53;;
71395;SDS011;59888;55.814;37.132;2022-07-25T07:54:23;6.78;;;4.53;;
71395;SDS011;59888;55.814;37.132;2022-07-25T07:59:34;5.13;;;4.13;;
71395;SDS011;59888;55.814;37.132;2022-07-25T08:02:00;4.57;;;3.70;;
71395;SDS011;59888;55.814;37.132;2022-07-25T08:04:26;7.70;;;4.20;;
71395;SDS011;59888;55.814;37.132;2022-07-25T08:06:52;4.70;;;3.88;;
71395;SDS011;59888;55.814;37.132;2022-07-25T08:09:17;5.25;;;3.83;;
71395;SDS011;59888;55.814;37.132;2022-07-25T08:11:43;5.20;;;3.85;;
71395;SDS011;59888;55.814;37.132;2022-07-25T08:14:09;8.05;;;3.88;;
71395;SDS011;59888;55.814;37.132;2022-07-25T08:16:35;5.07;;;3.60;;
71395;SDS011;59888;55.814;37.132;2022-07-25T08:19:01;4.60;;;3.70;;
71395;SDS011;59888;55.814;37.132;2022-07-25T08:21:27;4.55;;;3.22;;
71395;SDS011;59888;55.814;37.132;2022-07-25T08:23:53;5.20;;;3.22;;
71395;SDS011;59888;55.814;37.132;2022-07-25T08:26:19;3.58;;;2.60;;
71395;SDS011;59888;55.814;37.132;2022-07-25T08:28:45;6.30;;;3.05;;
71395;SDS011;59888;55.814;37.132;2022-07-25T08:31:11;3.65;;;2.88;;
71395;SDS011;59888;55.814;37.132;2022-07-25T08:33:37;4.70;;;3.00;;
71395;SDS011;59888;55.814;37.132;2022-07-25T08:36:03;4.07;;;2.90;;
71395;SDS011;59888;55.814;37.132;2022-07-25T08:38:29;4.45;;;3.13;;
71395;SDS011;59888;55.814;37.132;2022-07-25T08:40:55;5.07;;;3.03;;
71395;SDS011;59888;55.814;37.132;2022-07-25T08:43:22;5.00;;;3.05;;
71395;SDS011;59888;55.814;37.132;2022-07-25T08:45:49;3.70;;;3.05;;
71395;SDS011;59888;55.814;37.132;2022-07-25T08:48:17;3.85;;;3.33;;
71395;SDS011;59888;55.814;37.132;2022-07-25T08:50:46;4.65;;;3.28;;
71395;SDS011;59888;55.814;37.132;2022-07-25T08:53:14;4.35;;;3.10;;
71395;SDS011;59888;55.814;37.132;2022-07-25T08:55:42;7.50;;;3.30;;
71395;SDS011;59888;55.814;37.132;2022-07-25T08:58:10;3.80;;;3.25;;
71395;SDS011;59888;55.814;37.132;2022-07-25T09:00:37;3.97;;;3.22;;
71395;SDS011;59888;55.814;37.132;2022-07-25T09:03:03;6.95;;;3.30;;
71395;SDS011;59888;55.814;37.132;2022-07-25T09:05:33;3.85;;;3.03;;
71395;SDS011;59888;55.814;37.132;2022-07-25T09:08:10;4.22;;;2.90;;
71395;SDS011;59888;55.814;37.132;2022-07-25T09:10:38;4.63;;;2.92;;
71395;SDS011;59888;55.814;37.132;2022-07-25T09:13:10;7.53;;;3.13;;
71395;SDS011;59888;55.814;37.132;2022-07-25T09:15:45;5.75;;;3.17;;
71395;SDS011;59888;55.814;37.132;2022-07-25T09:18:14;4.20;;;3.00;;
71395;SDS011;59888;55.814;37.132;2022-07-25T09:20:45;5.45;;;3.20;;
71395;SDS011;59888;55.814;37.132;2022-07-25T09:23:38;5.53;;;2.97;;
71395;SDS011;59888;55.814;37.132;2022-07-25T09:26:04;3.47;;;2.70;;
71395;SDS011;59888;55.814;37.132;2022-07-25T09:28:38;4.78;;;3.10;;
71395;SDS011;59888;55.814;37.132;2022-07-25T09:31:16;5.22;;;3.30;;
71395;SDS011;59888;55.814;37.132;2022-07-25T09:33:47;6.93;;;3.30;;
71395;SDS011;59888;55.814;37.132;2022-07-25T09:39:37;5.57;;;2.95;;
71395;SDS011;59888;55.814;37.132;2022-07-25T09:42:23;6.10;;;3.00;;
71395;SDS011;59888;55.814;37.132;2022-07-25T09:45:05;5.50;;;2.75;;
71395;SDS011;59888;55.814;37.132;2022-07-25T09:47:35;7.38;;;2.90;;
71395;SDS011;59888;55.814;37.132;2022-07-25T09:50:03;3.58;;;2.80;;
71395;SDS011;59888;55.814;37.132;2022-07-25T09:52:30;4.65;;;2.90;;
71395;SDS011;59888;55.814;37.132;2022-07-25T09:55:00;4.68;;;3.10;;
71395;SDS011;59888;55.814;37.132;2022-07-25T09:57:29;3.55;;;2.65;;
71395;SDS011;59888;55.814;37.132;2022-07-25T09:59:54;5.75;;;2.70;;
71395;SDS011;59888;55.814;37.132;2022-07-25T10:05:02;6.53;;;2.63;;
71395;SDS011;59888;55.814;37.132;2022-07-25T10:07:38;5.45;;;2.92;;
71395;SDS011;59888;55.814;37.132;2022-07-25T10:10:07;3.10;;;2.40;;
71395;SDS011;59888;55.814;37.132;2022-07-25T10:12:33;3.70;;;2.78;;
71395;SDS011;59888;55.814;37.132;2022-07-25T10:15:03;2.90;;;2.50;;
71395;SDS011;59888;55.814;37.132;2022-07-25T10:17:32;3.40;;;2.42;;
71395;SDS011;59888;55.814;37.132;2022-07-25T10:19:58;3.42;;;2.60;;
71395;SDS011;59888;55.814;37.132;2022-07-25T10:22:35;3.20;;;2.50;;
71395;SDS011;59888;55.814;37.132;2022-07-25T10:25:09;2.83;;;2.45;;
71395;SDS011;59888;55.814;37.132;2022-07-25T10:27:43;5.30;;;2.70;;
71395;SDS011;59888;55.814;37.132;2022-07-25T10:30:18;4.65;;;2.80;;
71395;SDS011;59888;55.814;37.132;2022-07-25T10:32:57;4.15;;;2.60;;
71395;SDS011;59888;55.814;37.132;2022-07-25T10:35:25;4.13;;;2.80;;
71395;SDS011;59888;55.814;37.132;2022-07-25T10:37:53;5.65;;;4.30;;
71395;SDS011;59888;55.814;37.132;2022-07-25T10:40:25;5.20;;;2.83;;
71395;SDS011;59888;55.814;37.132;2022-07-25T10:43:01;3.80;;;2.90;;
71395;SDS011;59888;55.814;37.132;2022-07-25T10:48:55;3.40;;;2.80;;
71395;SDS011;59888;55.814;37.132;2022-07-25T10:51:25;4.03;;;2.83;;
71395;SDS011;59888;55.814;37.132;2022-07-25T10:53:56;4.65;;;2.53;;
71395;SDS011;59888;55.814;37.132;2022-07-25T10:56:24;4.53;;;3.00;;
71395;SDS011;59888;55.814;37.132;2022-07-25T10:58:52;4.43;;;3.00;;
71395;SDS011;59888;55.814;37.132;2022-07-25T11:01:21;4.50;;;2.50;;
71395;SDS011;59888;55.814;37.132;2022-07-25T11:03:49;3.05;;;2.60;;
71395;SDS011;59888;55.814;37.132;2022-07-25T11:06:37;4.95;;;2.40;;
71395;SDS011;59888;55.814;37.132;2022-07-25T11:09:14;3.42;;;2.63;;
71395;SDS011;59888;55.814;37.132;2022-07-25T11:11:43;3.97;;;2.92;;
71395;SDS011;59888;55.814;37.132;2022-07-25T11:14:14;3.00;;;2.20;;
71395;SDS011;59888;55.814;37.132;2022-07-25T11:16:41;4.25;;;2.40;;
71395;SDS011;59888;55.814;37.132;2022-07-25T11:19:18;6.55;;;2.70;;
71395;SDS011;59888;55.814;37.132;2022-07-25T11:21:46;4.10;;;2.28;;
71395;SDS011;59888;55.814;37.132;2022-07-25T11:24:14;4.18;;;2.60;;
71395;SDS011;59888;55.814;37.132;2022-07-25T11:26:47;5.45;;;2.63;;
71395;SDS011;59888;55.814;37.132;2022-07-25T11:29:21;4.13;;;2.45;;
71395;SDS011;59888;55.814;37.132;2022-07-25T11:31:55;2.85;;;2.55;;
71395;SDS011;59888;55.814;37.132;2022-07-25T11:34:24;4.03;;;2.55;;
71395;SDS011;59888;55.814;37.132;2022-07-25T11:36:53;4.22;;;2.10;;
71395;SDS011;59888;55.814;37.132;2022-07-25T11:39:22;6.05;;;3.05;;
71395;SDS011;59888;55.814;37.132;2022-07-25T11:44:41;3.15;;;2.58;;
71395;SDS011;59888;55.814;37.132;2022-07-25T11:47:22;7.32;;;2.92;;
71395;SDS011;59888;55.814;37.132;2022-07-25T11:49:57;4.40;;;2.50;;
71395;SDS011;59888;55.814;37.132;2022-07-25T11:52:26;4.35;;;2.63;;
71395;SDS011;59888;55.814;37.132;2022-07-25T11:54:58;3.50;;;2.15;;
71395;SDS011;59888;55.814;37.132;2022-07-25T11:57:29;3.15;;;2.40;;
71395;SDS011;59888;55.814;37.132;2022-07-25T11:59:57;6.00;;;2.40;;
71395;SDS011;59888;55.814;37.132;2022-07-25T12:02:34;4.38;;;2.53;;
71395;SDS011;59888;55.814;37.132;2022-07-25T12:05:05;3.58;;;2.60;;
71395;SDS011;59888;55.814;37.132;2022-07-25T12:07:42;3.60;;;2.28;;
71395;SDS011;59888;55.814;37.132;2022-07-25T12:10:13;3.10;;;2.38;;
71395;SDS011;59888;55.814;37.132;2022-07-25T12:12:58;5.22;;;2.47;;
71395;SDS011;59888;55.814;37.132;2022-07-25T12:15:40;5.03;;;2.90;;
71395;SDS011;59888;55.814;37.132;2022-07-25T12:18:07;9.02;;;3.28;;
71395;SDS011;59888;55.814;37.132;2022-07-25T12:20:37;6.05;;;2.80;;
71395;SDS011;59888;55.814;37.132;2022-07-25T12:23:05;9.88;;;4.50;;
71395;SDS011;59888;55.814;37.132;2022-07-25T12:25:38;4.13;;;2.95;;
71395;SDS011;59888;55.814;37.132;2022-07-25T12:28:05;7.43;;;3.10;;
71395;SDS011;59888;55.814;37.132;2022-07-25T12:30:32;4.38;;;2.78;;
71395;SDS011;59888;55.814;37.132;2022-07-25T12:32:58;8.48;;;3.10;;
71395;SDS011;59888;55.814;37.132;2022-07-25T12:35:25;5.65;;;3.55;;
71395;SDS011;59888;55.814;37.132;2022-07-25T12:37:52;4.28;;;2.65;;
71395;SDS011;59888;55.814;37.132;2022-07-25T12:40:19;4.10;;;2.60;;
71395;SDS011;59888;55.814;37.132;2022-07-25T12:42:45;4.05;;;2.63;;
71395;SDS011;59888;55.814;37.132;2022-07-25T12:45:12;3.95;;;2.30;;
71395;SDS011;59888;55.814;37.132;2022-07-25T12:47:41;4.90;;;2.38;;
71395;SDS011;59888;55.814;37.132;2022-07-25T12:50:07;4.72;;;2.55;;
71395;SDS011;59888;55.814;37.132;2022-07-25T12:52:34;4.07;;;2.53;;
71395;SDS011;59888;55.814;37.132;2022-07-25T12:55:00;6.85;;;3.35;;
71395;SDS011;59888;55.814;37.132;2022-07-25T12:57:26;3.92;;;2.50;;
71395;SDS011;59888;55.814;37.132;2022-07-25T12:59:52;5.75;;;2.85;;
71395;SDS011;59888;55.814;37.132;2022-07-25T13:02:18;3.70;;;2.63;;
71395;SDS011;59888;55.814;37.132;2022-07-25T13:04:43;3.33;;;2.42;;
71395;SDS011;59888;55.814;37.132;2022-07-25T13:07:11;3.55;;;2.42;;
71395;SDS011;59888;55.814;37.132;2022-07-25T13:09:37;4.97;;;2.47;;
71395;SDS011;59888;55.814;37.132;2022-07-25T13:12:03;3.58;;;2.20;;
71395;SDS011;59888;55.814;37.132;2022-07-25T13:14:29;3.75;;;2.50;;
71395;SDS011;59888;55.814;37.132;2022-07-25T13:16:55;4.43;;;2.28;;
71395;SDS011;59888;55.814;37.132;2022-07-25T13:19:21;2.60;;;2.10;;
71395;SDS011;59888;55.814;37.132;2022-07-25T13:21:47;2.92;;;2.47;;
71395;SDS011;59888;55.814;37.132;2022-07-25T13:24:12;4.15;;;2.60;;
71395;SDS011;59888;55.814;37.132;2022-07-25T13:26:38;4.18;;;2.70;;
71395;SDS011;59888;55.814;37.132;2022-07-25T13:29:04;4.50;;;2.78;;
71395;SDS011;59888;55.814;37.132;2022-07-25T13:31:39;2.47;;;2.10;;
71395;SDS011;59888;55.814;37.132;2022-07-25T13:34:06;3.60;;;2.53;;
71395;SDS011;59888;55.814;37.132;2022-07-25T13:36:33;4.07;;;2.80;;
71395;SDS011;59888;55.814;37.132;2022-07-25T13:38:59;3.63;;;2.20;;
71395;SDS011;59888;55.814;37.132;2022-07-25T13:41:25;3.42;;;2.30;;
71395;SDS011;59888;55.814;37.132;2022-07-25T13:43:53;4.82;;;2.42;;
71395;SDS011;59888;55.814;37.132;2022-07-25T13:46:19;3.10;;;2.30;;
71395;SDS011;59888;55.814;37.132;2022-07-25T13:48:45;3.55;;;2.40;;
71395;SDS011;59888;55.814;37.132;2022-07-25T13:51:11;3.42;;;2.28;;
71395;SDS011;59888;55.814;37.132;2022-07-25T13:53:37;2.92;;;2.20;;
71395;SDS011;59888;55.814;37.132;2022-07-25T13:56:03;2.95;;;2.00;;
71395;SDS011;59888;55.814;37.132;2022-07-25T13:58:30;2.40;;;2.20;;
71395;SDS011;59888;55.814;37.132;2022-07-25T14:00:56;2.90;;;2.10;;
71395;SDS011;59888;55.814;37.132;2022-07-25T14:03:21;3.60;;;2.60;;
71395;SDS011;59888;55.814;37.132;2022-07-25T14:05:47;3.20;;;2.30;;
71395;SDS011;59888;55.814;37.132;2022-07-25T14:08:13;3.60;;;1.95;;
71395;SDS011;59888;55.814;37.132;2022-07-25T14:10:39;3.00;;;2.22;;
71395;SDS011;59888;55.814;37.132;2022-07-25T14:13:05;2.55;;;2.20;;
71395;SDS011;59888;55.814;37.132;2022-07-25T14:15:31;2.63;;;2.08;;
71395;SDS011;59888;55.814;37.132;2022-07-25T14:17:57;5.18;;;1.90;;
71395;SDS011;59888;55.814;37.132;2022-07-25T14:20:23;4.22;;;1.90;;
71395;SDS011;59888;55.814;37.132;2022-07-25T14:22:49;3.45;;;2.08;;
71395;SDS011;59888;55.814;37.132;2022-07-25T14:25:14;3.35;;;2.05;;
71395;SDS011;59888;55.814;37.132;2022-07-25T14:27:40;4.15;;;1.80;;
71395;SDS011;59888;55.814;37.132;2022-07-25T14:30:07;3.97;;;2.20;;
71395;SDS011;59888;55.814;37.132;2022-07-25T14:32:34;3.50;;;2.00;;
71395;SDS011;59888;55.814;37.132;2022-07-25T14:35:00;2.92;;;2.10;;
71395;SDS011;59888;55.814;37.132;2022-07-25T14:37:28;2.72;;;2.05;;
71395;SDS011;59888;55.814;37.132;2022-07-25T14:39:59;5.00;;;1.90;;
71395;SDS011;59888;55.814;37.132;2022-07-25T14:42:26;4.68;;;1.92;;
71395;SDS011;59888;55.814;37.132;2022-07-25T14:44:52;4.93;;;2.20;;
71395;SDS011;59888;55.814;37.132;2022-07-25T14:47:22;3.45;;;2.08;;
71395;SDS011;59888;55.814;37.132;2022-07-25T14:49:48;3.83;;;2.10;;